Time;durP1;ratioP1;P1;durP2;ratioP2;P2;SDS_P1;SDS_P2;PMS_P1;PMS_P2;Temp;Humidity;BMP_temperature;BMP_pressure;BME280_temperature;BME280_humidity;BME280_pressure;Samples;Min_cycle;Max_cycle;Signal;HPM_P1;HPM_P2
2021/05/19 00:00:54;;;;;;;15.75;5.35;;;;;;;;;;5053766;28;20362;-78
2021/05/19 00:03:19;;;;;;;20.30;5.45;;;;;;;;;;5036049;28;20048;-78
2021/05/19 00:05:45;;;;;;;16.38;5.35;;;;;;;;;;5066977;28;20021;-78
2021/05/19 00:08:10;;;;;;;12.30;5.10;;;;;;;;;;5050761;28;20024;-77
2021/05/19 00:10:36;;;;;;;12.18;4.70;;;;;;;;;;5035012;28;20029;-78
2021/05/19 00:13:02;;;;;;;12.95;5.13;;;;;;;;;;5064346;28;20370;-78
2021/05/19 00:15:29;;;;;;;12.80;4.70;;;;;;;;;;5073510;28;20024;-78
2021/05/19 00:17:54;;;;;;;12.73;4.80;;;;;;;;;;5059610;28;20021;-77
2021/05/19 00:20:21;;;;;;;17.98;5.15;;;;;;;;;;5070602;28;20031;-78
2021/05/19 00:22:46;;;;;;;14.70;4.70;;;;;;;;;;5071588;28;20021;-78
2021/05/19 00:25:12;;;;;;;11.70;5.05;;;;;;;;;;5055501;28;20418;-78
2021/05/19 00:27:38;;;;;;;18.27;5.22;;;;;;;;;;5052335;28;20450;-77
2021/05/19 00:30:05;;;;;;;14.73;5.43;;;;;;;;;;5062551;28;20009;-78
2021/05/19 00:32:30;;;;;;;11.35;4.63;;;;;;;;;;5055963;28;20477;-78
2021/05/19 00:34:56;;;;;;;13.20;5.22;;;;;;;;;;5063752;28;20033;-77
2021/05/19 00:37:21;;;;;;;16.38;5.10;;;;;;;;;;5037567;28;20544;-78
2021/05/19 00:39:46;;;;;;;17.77;5.20;;;;;;;;;;5064542;28;20421;-78
2021/05/19 00:42:15;;;;;;;12.20;4.50;;;;;;;;;;5059075;28;20094;-77
2021/05/19 00:44:42;;;;;;;12.80;4.72;;;;;;;;;;5053363;28;20028;-78
2021/05/19 00:47:09;;;;;;;14.57;5.10;;;;;;;;;;5057033;28;20429;-77
2021/05/19 00:49:34;;;;;;;13.80;4.70;;;;;;;;;;5057996;28;20096;-78
2021/05/19 00:51:59;;;;;;;14.23;4.53;;;;;;;;;;5052753;28;20069;-78
2021/05/19 00:54:25;;;;;;;23.52;5.13;;;;;;;;;;5048989;28;20021;-78
2021/05/19 00:56:51;;;;;;;12.68;4.78;;;;;;;;;;5033657;28;20021;-78
2021/05/19 00:59:16;;;;;;;14.50;4.50;;;;;;;;;;5033471;28;20025;-78
2021/05/19 01:01:41;;;;;;;14.60;4.50;;;;;;;;;;5032093;28;20119;-77
2021/05/19 01:04:07;;;;;;;15.60;5.53;;;;;;;;;;5031117;28;20030;-78
2021/05/19 01:07:00;;;;;;;16.50;5.45;;;;;;;;;;5014722;28;20332;-78
2021/05/19 01:09:35;;;;;;;16.90;5.15;;;;;;;;;;5046853;28;20036;-78
2021/05/19 01:12:00;;;;;;;16.73;6.20;;;;;;;;;;5051019;28;20163;-78
2021/05/19 01:14:25;;;;;;;14.07;4.65;;;;;;;;;;5018998;28;20458;-78
2021/05/19 01:16:51;;;;;;;15.05;4.95;;;;;;;;;;5015398;28;20434;-77
2021/05/19 01:19:18;;;;;;;16.70;4.97;;;;;;;;;;5030577;28;20021;-77
2021/05/19 01:21:45;;;;;;;16.13;5.45;;;;;;;;;;5033676;28;20021;-78
2021/05/19 01:24:11;;;;;;;17.42;4.55;;;;;;;;;;5052702;28;20035;-77
2021/05/19 01:26:36;;;;;;;18.90;5.20;;;;;;;;;;5050277;28;20447;-78
2021/05/19 01:29:02;;;;;;;17.60;5.18;;;;;;;;;;5035885;28;20029;-77
2021/05/19 01:31:27;;;;;;;14.38;5.25;;;;;;;;;;5037047;28;20026;-78
2021/05/19 01:33:52;;;;;;;14.48;4.88;;;;;;;;;;5043545;28;20081;-77
2021/05/19 01:36:18;;;;;;;13.02;4.93;;;;;;;;;;5037615;28;20025;-78
2021/05/19 01:38:45;;;;;;;12.88;4.60;;;;;;;;;;5034448;28;20493;-77
2021/05/19 01:41:10;;;;;;;13.60;4.70;;;;;;;;;;5054742;28;20032;-78
2021/05/19 01:43:36;;;;;;;15.82;5.20;;;;;;;;;;5050905;28;20029;-78
2021/05/19 01:46:01;;;;;;;13.13;5.28;;;;;;;;;;5056227;28;20021;-78
2021/05/19 01:48:28;;;;;;;12.70;4.70;;;;;;;;;;5046035;28;20013;-78
2021/05/19 01:50:53;;;;;;;9.93;4.63;;;;;;;;;;5046577;28;20351;-77
2021/05/19 01:53:19;;;;;;;18.00;5.30;;;;;;;;;;5054551;28;20018;-78
2021/05/19 01:55:44;;;;;;;11.88;4.68;;;;;;;;;;5064232;28;20030;-78
2021/05/19 01:58:09;;;;;;;16.27;5.20;;;;;;;;;;5075977;28;20116;-77
2021/05/19 02:00:35;;;;;;;19.88;5.32;;;;;;;;;;5045226;28;20052;-78
2021/05/19 02:03:04;;;;;;;14.57;4.82;;;;;;;;;;5038570;28;20115;-77
2021/05/19 02:05:30;;;;;;;16.38;4.95;;;;;;;;;;5036860;28;20060;-77
2021/05/19 02:07:57;;;;;;;13.65;4.72;;;;;;;;;;5072642;28;20024;-78
2021/05/19 02:10:23;;;;;;;18.90;5.15;;;;;;;;;;5074486;28;20031;-78
2021/05/19 02:12:48;;;;;;;14.73;4.75;;;;;;;;;;5057720;28;20032;-78
2021/05/19 02:15:16;;;;;;;15.40;5.32;;;;;;;;;;5069709;28;20036;-77
2021/05/19 02:17:41;;;;;;;12.50;4.70;;;;;;;;;;5074983;28;20042;-77
2021/05/19 02:20:09;;;;;;;16.27;4.85;;;;;;;;;;5059572;28;20449;-78
2021/05/19 02:22:34;;;;;;;15.82;4.95;;;;;;;;;;5066286;28;20024;-78
2021/05/19 02:24:59;;;;;;;15.80;4.65;;;;;;;;;;5073812;28;20029;-78
2021/05/19 02:27:25;;;;;;;16.55;4.85;;;;;;;;;;5045058;28;20332;-78
2021/05/19 02:29:54;;;;;;;17.15;5.50;;;;;;;;;;5054933;28;20021;-78
2021/05/19 02:32:20;;;;;;;20.27;5.00;;;;;;;;;;5054156;28;20339;-78
2021/05/19 02:34:45;;;;;;;11.02;4.35;;;;;;;;;;5054887;28;20036;-78
2021/05/19 02:37:11;;;;;;;13.65;5.03;;;;;;;;;;5059298;28;20051;-78
2021/05/19 02:39:36;;;;;;;14.35;4.43;;;;;;;;;;5054847;28;20044;-77
2021/05/19 02:42:01;;;;;;;17.38;4.80;;;;;;;;;;5053186;28;20063;-77
2021/05/19 02:44:26;;;;;;;12.90;4.25;;;;;;;;;;5052708;28;20115;-78
2021/05/19 02:46:52;;;;;;;34.70;5.97;;;;;;;;;;5054459;28;20529;-77
2021/05/19 02:49:17;;;;;;;12.90;4.78;;;;;;;;;;5053868;28;20104;-78
2021/05/19 02:51:42;;;;;;;12.13;4.68;;;;;;;;;;5053737;28;20102;-78
2021/05/19 02:54:08;;;;;;;17.33;4.85;;;;;;;;;;5054512;28;20028;-78
2021/05/19 02:56:33;;;;;;;10.98;4.72;;;;;;;;;;5054274;28;20081;-77
2021/05/19 02:58:59;;;;;;;11.95;4.35;;;;;;;;;;5054623;28;20031;-77
2021/05/19 03:01:24;;;;;;;16.42;4.97;;;;;;;;;;5052385;28;20033;-77
2021/05/19 03:03:49;;;;;;;12.50;5.20;;;;;;;;;;5053717;28;20033;-77
2021/05/19 03:06:15;;;;;;;14.55;5.88;;;;;;;;;;5057167;28;20086;-78
2021/05/19 03:08:40;;;;;;;16.45;5.18;;;;;;;;;;5074121;28;20383;-77
2021/05/19 03:11:06;;;;;;;15.55;5.10;;;;;;;;;;5073855;28;20103;-77
2021/05/19 03:13:32;;;;;;;18.67;5.35;;;;;;;;;;5055394;28;20036;-77
2021/05/19 03:15:57;;;;;;;14.18;4.70;;;;;;;;;;5054151;28;20343;-78
2021/05/19 03:18:23;;;;;;;16.58;5.45;;;;;;;;;;5054115;28;20406;-78
2021/05/19 03:20:48;;;;;;;14.30;5.60;;;;;;;;;;5054152;28;20048;-77
2021/05/19 03:23:14;;;;;;;14.20;5.28;;;;;;;;;;5053555;28;20021;-78
2021/05/19 03:25:39;;;;;;;15.55;5.00;;;;;;;;;;5053465;28;20056;-77
2021/05/19 03:28:05;;;;;;;14.20;5.15;;;;;;;;;;5053639;28;20028;-76
2021/05/19 03:30:30;;;;;;;11.48;5.38;;;;;;;;;;5053059;28;20103;-78
2021/05/19 03:32:57;;;;;;;12.05;4.88;;;;;;;;;;5054783;28;20044;-78
2021/05/19 03:35:23;;;;;;;11.95;4.68;;;;;;;;;;5053860;28;20062;-77
2021/05/19 03:37:48;;;;;;;11.32;5.15;;;;;;;;;;5065995;28;20012;-77
2021/05/19 03:40:14;;;;;;;13.95;5.32;;;;;;;;;;5073174;28;20055;-78
2021/05/19 03:42:40;;;;;;;12.25;4.93;;;;;;;;;;5061637;28;20039;-78
2021/05/19 03:45:06;;;;;;;13.88;4.65;;;;;;;;;;5048725;28;20013;-77
2021/05/19 03:47:31;;;;;;;13.32;5.15;;;;;;;;;;5044887;28;20100;-78
2021/05/19 03:49:58;;;;;;;12.45;5.15;;;;;;;;;;5046309;28;20179;-77
2021/05/19 03:52:23;;;;;;;12.57;5.07;;;;;;;;;;5052040;28;20021;-77
2021/05/19 03:54:49;;;;;;;16.05;4.72;;;;;;;;;;5051090;28;20031;-77
2021/05/19 03:57:14;;;;;;;10.13;4.72;;;;;;;;;;5040908;28;20335;-78
2021/05/19 03:59:39;;;;;;;11.63;4.53;;;;;;;;;;5062630;28;20161;-78
2021/05/19 04:02:05;;;;;;;9.18;4.38;;;;;;;;;;5075494;28;20034;-79
2021/05/19 04:04:30;;;;;;;12.10;4.65;;;;;;;;;;5077216;28;20040;-78
2021/05/19 04:06:56;;;;;;;13.80;4.50;;;;;;;;;;5065186;28;20099;-79
2021/05/19 04:09:21;;;;;;;10.75;4.40;;;;;;;;;;5057708;28;20513;-78
2021/05/19 04:11:46;;;;;;;11.95;4.40;;;;;;;;;;5053887;28;20013;-78
2021/05/19 04:14:13;;;;;;;11.82;4.35;;;;;;;;;;5054823;28;20090;-78
2021/05/19 04:16:39;;;;;;;13.65;4.63;;;;;;;;;;5051379;28;20019;-78
2021/05/19 04:19:05;;;;;;;13.88;4.78;;;;;;;;;;5051225;28;20075;-78
2021/05/19 04:21:30;;;;;;;12.15;4.38;;;;;;;;;;5072612;28;20138;-78
2021/05/19 04:23:56;;;;;;;9.50;4.07;;;;;;;;;;5065397;28;20100;-78
2021/05/19 04:26:22;;;;;;;16.30;4.32;;;;;;;;;;5069423;28;20098;-79
2021/05/19 04:28:47;;;;;;;13.75;4.55;;;;;;;;;;5072840;28;20043;-77
2021/05/19 04:31:13;;;;;;;15.50;4.97;;;;;;;;;;5036049;28;20029;-77
2021/05/19 04:33:38;;;;;;;12.10;4.93;;;;;;;;;;5053759;28;20012;-78
2021/05/19 04:36:04;;;;;;;8.68;4.13;;;;;;;;;;5048758;28;20358;-77
2021/05/19 04:38:29;;;;;;;11.25;4.80;;;;;;;;;;5049739;28;20025;-77
2021/05/19 04:40:54;;;;;;;15.98;4.53;;;;;;;;;;5053687;28;20013;-79
2021/05/19 04:43:20;;;;;;;9.15;4.50;;;;;;;;;;5056377;28;20316;-78
2021/05/19 04:45:46;;;;;;;10.93;4.30;;;;;;;;;;5051269;28;20016;-78
2021/05/19 04:48:12;;;;;;;10.20;4.18;;;;;;;;;;5055127;28;20032;-78
2021/05/19 04:50:38;;;;;;;9.18;4.13;;;;;;;;;;5052311;28;20375;-78
2021/05/19 04:53:04;;;;;;;12.13;4.00;;;;;;;;;;5067888;28;20027;-78
2021/05/19 04:55:30;;;;;;;9.82;4.03;;;;;;;;;;5052312;28;20067;-78
2021/05/19 04:57:56;;;;;;;12.15;4.53;;;;;;;;;;5035172;28;20358;-77
2021/05/19 05:00:21;;;;;;;9.52;3.65;;;;;;;;;;5055263;28;20156;-78
2021/05/19 05:02:46;;;;;;;11.32;3.92;;;;;;;;;;5056087;28;20358;-80
2021/05/19 05:05:12;;;;;;;11.85;4.57;;;;;;;;;;5055598;28;20025;-80
2021/05/19 05:07:38;;;;;;;7.70;3.92;;;;;;;;;;5053266;28;20036;-79
2021/05/19 05:10:04;;;;;;;10.02;3.92;;;;;;;;;;5076421;28;20036;-79
2021/05/19 05:12:29;;;;;;;7.35;3.67;;;;;;;;;;5075950;28;20023;-79
2021/05/19 05:14:54;;;;;;;11.07;3.90;;;;;;;;;;5043393;28;20021;-79
2021/05/19 05:17:21;;;;;;;9.88;3.78;;;;;;;;;;5060059;28;20102;-79
2021/05/19 05:19:46;;;;;;;11.43;4.00;;;;;;;;;;5075154;28;20025;-79
2021/05/19 05:22:11;;;;;;;9.73;3.78;;;;;;;;;;5059077;28;20103;-79
2021/05/19 05:24:37;;;;;;;9.60;3.83;;;;;;;;;;5050873;28;20443;-79
2021/05/19 05:27:02;;;;;;;9.45;3.65;;;;;;;;;;5056566;28;20029;-79
2021/05/19 05:29:28;;;;;;;9.02;3.67;;;;;;;;;;5039519;28;20367;-79
2021/05/19 05:31:53;;;;;;;11.75;4.18;;;;;;;;;;5055055;28;20035;-79
2021/05/19 05:34:18;;;;;;;11.02;3.58;;;;;;;;;;5055546;28;20115;-79
2021/05/19 05:36:43;;;;;;;11.60;3.97;;;;;;;;;;5054553;28;20451;-79
2021/05/19 05:39:09;;;;;;;7.13;3.45;;;;;;;;;;5066892;28;20071;-79
2021/05/19 05:41:35;;;;;;;9.55;3.53;;;;;;;;;;5070310;28;20043;-79
2021/05/19 05:44:00;;;;;;;7.88;3.58;;;;;;;;;;5073801;28;20013;-78
2021/05/19 05:46:25;;;;;;;10.63;3.70;;;;;;;;;;5061048;28;20021;-78
2021/05/19 05:48:50;;;;;;;12.48;3.60;;;;;;;;;;5054891;28;20028;-79
2021/05/19 05:51:16;;;;;;;8.25;3.20;;;;;;;;;;5052695;28;20029;-78
2021/05/19 05:53:42;;;;;;;7.38;3.40;;;;;;;;;;5037400;28;20418;-79
2021/05/19 05:56:07;;;;;;;9.48;3.65;;;;;;;;;;5052713;28;20053;-79
2021/05/19 05:58:32;;;;;;;7.85;3.55;;;;;;;;;;5057559;28;20020;-78
2021/05/19 06:00:57;;;;;;;7.47;3.40;;;;;;;;;;5057783;28;20035;-79
2021/05/19 06:03:23;;;;;;;8.93;3.60;;;;;;;;;;5040690;28;20520;-79
2021/05/19 06:05:48;;;;;;;7.30;3.63;;;;;;;;;;5075398;28;20038;-79
2021/05/19 06:08:13;;;;;;;8.05;3.30;;;;;;;;;;5053863;28;20033;-79
2021/05/19 06:10:39;;;;;;;11.82;3.67;;;;;;;;;;5037910;28;20571;-79
2021/05/19 06:13:04;;;;;;;7.15;3.20;;;;;;;;;;5037783;28;20112;-79
2021/05/19 06:15:29;;;;;;;10.55;3.45;;;;;;;;;;5055137;28;20025;-79
2021/05/19 06:17:54;;;;;;;6.20;3.45;;;;;;;;;;5054650;28;20017;-79
2021/05/19 06:20:21;;;;;;;7.78;3.30;;;;;;;;;;5053929;28;20043;-79
2021/05/19 06:22:48;;;;;;;8.43;3.67;;;;;;;;;;5068429;28;20032;-78
2021/05/19 06:25:15;;;;;;;5.18;3.13;;;;;;;;;;5075222;28;20214;-79
2021/05/19 06:27:40;;;;;;;7.93;2.80;;;;;;;;;;5069948;28;20029;-78
2021/05/19 06:30:06;;;;;;;8.43;3.38;;;;;;;;;;5056152;28;20060;-79
2021/05/19 06:32:31;;;;;;;6.47;3.20;;;;;;;;;;5056592;28;20025;-79
2021/05/19 06:34:57;;;;;;;7.53;3.38;;;;;;;;;;5075348;28;20024;-79
2021/05/19 06:37:24;;;;;;;8.88;3.97;;;;;;;;;;5069980;28;20044;-79
2021/05/19 06:39:50;;;;;;;9.57;3.40;;;;;;;;;;5056113;28;20021;-79
2021/05/19 06:42:19;;;;;;;8.77;3.53;;;;;;;;;;5054834;28;20029;-80
2021/05/19 06:44:45;;;;;;;7.43;3.72;;;;;;;;;;5052937;28;20087;-80
2021/05/19 06:47:10;;;;;;;8.82;3.60;;;;;;;;;;5050439;28;20021;-78
2021/05/19 06:49:35;;;;;;;12.75;3.50;;;;;;;;;;5067539;28;20021;-79
2021/05/19 06:52:01;;;;;;;5.65;3.15;;;;;;;;;;5060464;28;20020;-80
2021/05/19 06:54:26;;;;;;;6.07;3.10;;;;;;;;;;5067616;28;20041;-81
2021/05/19 06:56:52;;;;;;;7.78;3.45;;;;;;;;;;5053313;28;20059;-79
2021/05/19 06:59:18;;;;;;;8.75;3.03;;;;;;;;;;5041241;28;20025;-81
2021/05/19 07:01:44;;;;;;;10.10;3.78;;;;;;;;;;5058426;28;20115;-81
2021/05/19 07:04:09;;;;;;;5.68;3.38;;;;;;;;;;5058758;28;20103;-78
2021/05/19 07:06:35;;;;;;;8.35;3.60;;;;;;;;;;5054119;28;20380;-78
2021/05/19 07:09:00;;;;;;;8.40;3.60;;;;;;;;;;5064218;28;20027;-80
2021/05/19 07:11:25;;;;;;;4.32;3.13;;;;;;;;;;5054050;28;20018;-79
2021/05/19 07:13:52;;;;;;;10.60;3.40;;;;;;;;;;5256682;22;20057;-82
2021/05/19 07:16:24;;;;;;;5.88;3.25;;;;;;;;;;5045323;28;20025;-80
2021/05/19 07:18:49;;;;;;;7.15;3.40;;;;;;;;;;5049979;28;20021;-78
2021/05/19 07:21:16;;;;;;;11.27;4.05;;;;;;;;;;5043390;28;20509;-78
2021/05/19 07:23:41;;;;;;;6.95;3.45;;;;;;;;;;5033842;28;20462;-79
2021/05/19 07:26:07;;;;;;;9.57;3.17;;;;;;;;;;5045308;28;20014;-77
2021/05/19 07:28:33;;;;;;;5.63;2.97;;;;;;;;;;5052810;28;20470;-78
2021/05/19 07:30:58;;;;;;;4.60;3.30;;;;;;;;;;5041710;28;20340;-78
2021/05/19 07:33:24;;;;;;;8.25;3.28;;;;;;;;;;5039804;28;20553;-78
2021/05/19 07:35:49;;;;;;;5.00;3.40;;;;;;;;;;5041353;28;20021;-77
2021/05/19 07:38:14;;;;;;;6.38;3.30;;;;;;;;;;5050341;28;20469;-77
2021/05/19 07:40:41;;;;;;;5.90;3.08;;;;;;;;;;5038391;28;20024;-78
2021/05/19 07:43:06;;;;;;;6.30;3.00;;;;;;;;;;5052341;28;20021;-78
2021/05/19 07:45:32;;;;;;;6.03;3.13;;;;;;;;;;5046303;28;20749;-79
2021/05/19 07:47:58;;;;;;;5.03;2.75;;;;;;;;;;5043120;28;20044;-78
2021/05/19 07:50:23;;;;;;;6.95;3.30;;;;;;;;;;5043036;28;20013;-78
2021/05/19 07:52:49;;;;;;;5.18;3.00;;;;;;;;;;5031958;28;20018;-79
2021/05/19 07:55:24;;;;;;;10.35;3.22;;;;;;;;;;5055862;28;20466;-78
2021/05/19 07:58:02;;;;;;;5.13;2.78;;;;;;;;;;5052633;28;20115;-80
2021/05/19 08:02:53;;;;;;;7.18;2.53;;;;;;;;;;5047734;28;20086;-79
2021/05/19 08:05:18;;;;;;;5.18;2.72;;;;;;;;;;5041968;28;20091;-79
2021/05/19 08:07:44;;;;;;;5.32;2.90;;;;;;;;;;5046049;28;20512;-80
2021/05/19 08:10:09;;;;;;;6.43;3.15;;;;;;;;;;5046848;28;20025;-79
2021/05/19 08:12:34;;;;;;;5.00;2.70;;;;;;;;;;5047933;28;20107;-82
2021/05/19 08:15:00;;;;;;;3.78;2.63;;;;;;;;;;5036012;28;20474;-80
2021/05/19 08:17:25;;;;;;;5.18;2.72;;;;;;;;;;5034095;28;20013;-79
2021/05/19 08:19:51;;;;;;;4.70;2.63;;;;;;;;;;5033826;28;20021;-79
2021/05/19 08:22:16;;;;;;;6.18;2.90;;;;;;;;;;5045380;28;20013;-79
2021/05/19 08:24:44;;;;;;;5.68;2.90;;;;;;;;;;5056730;28;20057;-80
2021/05/19 08:27:16;;;;;;;5.07;2.90;;;;;;;;;;5060051;28;20025;-79
2021/05/19 08:29:45;;;;;;;7.40;3.10;;;;;;;;;;5043101;28;20013;-78
2021/05/19 08:32:12;;;;;;;6.60;3.22;;;;;;;;;;5053148;28;20108;-79
2021/05/19 08:34:38;;;;;;;7.47;3.30;;;;;;;;;;5053314;28;20473;-79
2021/05/19 08:37:03;;;;;;;4.90;3.22;;;;;;;;;;5061145;28;20020;-79
2021/05/19 08:39:28;;;;;;;5.75;2.60;;;;;;;;;;5067311;28;20048;-79
2021/05/19 08:41:54;;;;;;;6.95;3.05;;;;;;;;;;5049811;28;20107;-79
2021/05/19 08:44:20;;;;;;;6.03;3.03;;;;;;;;;;5050718;28;20029;-78
2021/05/19 08:46:48;;;;;;;5.43;2.83;;;;;;;;;;5054918;28;20037;-78
2021/05/19 08:49:16;;;;;;;5.60;2.85;;;;;;;;;;5049166;28;20014;-79
2021/05/19 08:51:41;;;;;;;5.72;2.90;;;;;;;;;;5048083;28;20025;-79
2021/05/19 08:54:08;;;;;;;4.75;3.00;;;;;;;;;;5045128;28;20017;-78
2021/05/19 08:56:39;;;;;;;4.47;2.90;;;;;;;;;;5037064;28;20033;-78
2021/05/19 08:59:05;;;;;;;7.40;3.55;;;;;;;;;;5043879;28;20106;-78
2021/05/19 09:01:35;;;;;;;7.28;2.80;;;;;;;;;;5044497;28;20076;-79
2021/05/19 09:04:02;;;;;;;5.05;2.75;;;;;;;;;;5043994;28;20500;-79
2021/05/19 09:06:29;;;;;;;3.20;2.42;;;;;;;;;;5054935;28;20021;-78
2021/05/19 09:08:54;;;;;;;5.32;2.90;;;;;;;;;;5037819;28;20086;-77
2021/05/19 09:11:20;;;;;;;7.78;2.63;;;;;;;;;;5034325;28;20510;-79
2021/05/19 09:13:46;;;;;;;5.20;3.00;;;;;;;;;;5052625;28;20052;-79
2021/05/19 09:16:14;;;;;;;3.80;3.28;;;;;;;;;;5056332;28;20391;-77
2021/05/19 09:18:46;;;;;;;5.35;2.97;;;;;;;;;;5056853;28;20096;-78
2021/05/19 09:21:29;;;;;;;6.32;3.40;;;;;;;;;;5052562;28;20028;-77
2021/05/19 09:23:55;;;;;;;6.15;3.38;;;;;;;;;;5057161;28;20395;-78
2021/05/19 09:26:20;;;;;;;8.48;3.83;;;;;;;;;;5045896;28;20053;-77
2021/05/19 09:28:45;;;;;;;6.60;4.00;;;;;;;;;;5045807;28;20025;-78
2021/05/19 09:31:21;;;;;;;5.53;3.75;;;;;;;;;;5047238;28;20032;-78
2021/05/19 09:33:48;;;;;;;5.85;3.67;;;;;;;;;;5042667;28;20022;-77
2021/05/19 09:36:21;;;;;;;6.93;3.80;;;;;;;;;;5039689;28;20026;-78
2021/05/19 09:38:49;;;;;;;6.20;3.72;;;;;;;;;;5055206;28;20013;-78
2021/05/19 09:41:14;;;;;;;6.88;3.90;;;;;;;;;;5071007;28;20028;-78
2021/05/19 09:43:41;;;;;;;8.18;3.88;;;;;;;;;;5046772;28;20152;-77
2021/05/19 09:46:21;;;;;;;6.05;3.60;;;;;;;;;;5045528;28;20044;-77
2021/05/19 09:48:46;;;;;;;5.97;3.35;;;;;;;;;;5035738;28;20043;-78
2021/05/19 09:51:25;;;;;;;7.88;3.65;;;;;;;;;;5037112;28;20467;-78
2021/05/19 09:53:50;;;;;;;5.32;3.20;;;;;;;;;;5053761;28;20052;-78
2021/05/19 09:56:16;;;;;;;8.82;3.25;;;;;;;;;;5055168;28;20777;-77
2021/05/19 09:58:42;;;;;;;7.25;3.00;;;;;;;;;;5033937;28;20090;-78
2021/05/19 10:01:08;;;;;;;4.25;2.85;;;;;;;;;;5043034;28;20397;-78
2021/05/19 10:03:36;;;;;;;4.18;2.60;;;;;;;;;;5052492;28;20427;-78
2021/05/19 10:06:22;;;;;;;3.28;2.20;;;;;;;;;;5054555;28;20033;-78
2021/05/19 10:08:51;;;;;;;6.35;2.75;;;;;;;;;;5048646;28;20044;-78
2021/05/19 10:11:16;;;;;;;4.53;2.65;;;;;;;;;;5050617;28;20021;-78
2021/05/19 10:13:42;;;;;;;5.88;2.60;;;;;;;;;;5050430;28;20049;-78
2021/05/19 10:16:08;;;;;;;5.35;2.50;;;;;;;;;;5045752;28;20706;-78
2021/05/19 10:18:39;;;;;;;3.42;2.50;;;;;;;;;;5041450;28;20088;-78
2021/05/19 10:21:05;;;;;;;4.70;2.70;;;;;;;;;;5044297;28;20033;-78
2021/05/19 10:23:39;;;;;;;5.47;2.13;;;;;;;;;;5031254;28;20351;-78
2021/05/19 10:26:09;;;;;;;3.30;2.45;;;;;;;;;;5051498;28;20029;-77
2021/05/19 10:28:42;;;;;;;4.53;2.58;;;;;;;;;;5036744;28;20037;-78
2021/05/19 10:31:23;;;;;;;4.47;2.42;;;;;;;;;;5049610;28;20013;-78
2021/05/19 10:33:49;;;;;;;3.63;2.65;;;;;;;;;;5042328;28;20048;-77
2021/05/19 10:36:24;;;;;;;5.30;2.88;;;;;;;;;;5033231;28;20042;-77
2021/05/19 10:39:11;;;;;;;4.15;3.10;;;;;;;;;;5042139;28;20109;-78
2021/05/19 10:41:36;;;;;;;6.05;3.00;;;;;;;;;;5041569;28;20097;-78
2021/05/19 10:44:05;;;;;;;4.20;2.50;;;;;;;;;;5050070;28;20104;-78
2021/05/19 10:46:45;;;;;;;3.05;2.35;;;;;;;;;;5059584;28;20112;-78
2021/05/19 10:49:10;;;;;;;3.17;2.22;;;;;;;;;;5049291;28;20029;-77
2021/05/19 10:57:30;;;;;;;4.65;2.88;;;;;;;;;;5039746;28;20044;-77
2021/05/19 10:59:57;;;;;;;5.28;2.80;;;;;;;;;;5041937;28;20488;-77
2021/05/19 11:02:22;;;;;;;4.60;2.90;;;;;;;;;;5042030;28;20100;-78
2021/05/19 11:05:20;;;;;;;5.85;2.95;;;;;;;;;;5038600;28;20065;-77
2021/05/19 11:08:04;;;;;;;5.18;2.58;;;;;;;;;;5011556;28;20022;-77
2021/05/19 11:10:31;;;;;;;3.70;2.60;;;;;;;;;;5039944;28;20502;-77
2021/05/19 11:12:56;;;;;;;4.85;2.50;;;;;;;;;;5045867;28;20072;-77
2021/05/19 11:18:17;;;;;;;6.43;2.60;;;;;;;;;;5041034;28;20029;-77
2021/05/19 11:20:43;;;;;;;4.38;2.25;;;;;;;;;;5048675;28;20029;-77
2021/05/19 11:23:09;;;;;;;4.57;2.08;;;;;;;;;;5039345;28;20068;-77
2021/05/19 11:25:34;;;;;;;4.10;2.40;;;;;;;;;;5038390;28;20026;-77
2021/05/19 11:28:00;;;;;;;5.25;2.22;;;;;;;;;;5026704;28;20328;-77
2021/05/19 11:30:26;;;;;;;5.32;2.70;;;;;;;;;;5034155;28;20104;-77
2021/05/19 11:33:09;;;;;;;3.70;2.50;;;;;;;;;;5047114;28;20017;-78
2021/05/19 11:35:35;;;;;;;5.15;2.13;;;;;;;;;;5038842;28;20021;-77
2021/05/19 11:38:02;;;;;;;3.55;2.38;;;;;;;;;;5052046;28;20028;-77
2021/05/19 11:40:38;;;;;;;3.78;2.40;;;;;;;;;;5050877;28;20469;-78
2021/05/19 11:43:03;;;;;;;4.13;2.47;;;;;;;;;;5065625;28;20020;-78
2021/05/19 11:45:29;;;;;;;4.35;2.58;;;;;;;;;;5048291;28;20083;-79
2021/05/19 11:47:55;;;;;;;3.63;2.50;;;;;;;;;;5042331;28;20032;-79
2021/05/19 11:50:25;;;;;;;3.03;2.30;;;;;;;;;;5043041;28;20028;-78
2021/05/19 11:52:53;;;;;;;4.30;2.60;;;;;;;;;;5059605;28;20052;-78
2021/05/19 11:55:36;;;;;;;5.45;2.50;;;;;;;;;;5040978;28;20017;-79
2021/05/19 11:58:06;;;;;;;4.70;2.55;;;;;;;;;;5043524;28;20067;-79
2021/05/19 12:00:32;;;;;;;3.88;2.03;;;;;;;;;;5044494;28;20032;-78
2021/05/19 12:02:58;;;;;;;3.97;2.25;;;;;;;;;;5036445;28;20037;-79
2021/05/19 12:05:23;;;;;;;6.40;2.50;;;;;;;;;;5046505;28;20115;-79
2021/05/19 12:07:49;;;;;;;4.80;2.20;;;;;;;;;;5036032;28;20375;-81
2021/05/19 12:10:15;;;;;;;3.78;2.30;;;;;;;;;;5042147;28;20017;-79
2021/05/19 12:12:41;;;;;;;5.70;2.58;;;;;;;;;;5054844;28;20093;-80
2021/05/19 12:15:07;;;;;;;2.45;1.80;;;;;;;;;;5047318;28;20060;-80
2021/05/19 12:17:32;;;;;;;10.93;2.20;;;;;;;;;;5046565;28;20028;-79
2021/05/19 12:19:57;;;;;;;4.85;2.20;;;;;;;;;;5043938;28;20017;-81
2021/05/19 12:22:23;;;;;;;3.45;2.13;;;;;;;;;;5048942;28;20021;-79
2021/05/19 12:24:50;;;;;;;4.60;2.47;;;;;;;;;;5043306;28;20438;-80
2021/05/19 12:27:16;;;;;;;4.40;2.72;;;;;;;;;;5047846;28;20477;-78
2021/05/19 12:29:47;;;;;;;5.93;2.70;;;;;;;;;;5043703;28;20079;-79
2021/05/19 12:32:24;;;;;;;4.90;2.63;;;;;;;;;;5046496;28;20024;-79
2021/05/19 12:35:01;;;;;;;6.18;2.65;;;;;;;;;;5059087;28;20197;-78
2021/05/19 12:37:37;;;;;;;4.78;2.65;;;;;;;;;;5038255;28;20021;-79
2021/05/19 12:40:04;;;;;;;3.53;2.58;;;;;;;;;;5047735;28;20036;-79
2021/05/19 12:42:29;;;;;;;4.45;2.72;;;;;;;;;;5057327;28;20126;-79
2021/05/19 12:44:58;;;;;;;4.80;2.45;;;;;;;;;;5052114;28;20037;-78
2021/05/19 12:47:25;;;;;;;7.38;3.22;;;;;;;;;;5047982;28;20080;-79
2021/05/19 12:49:59;;;;;;;7.32;2.75;;;;;;;;;;5037261;28;20021;-79
2021/05/19 12:52:28;;;;;;;5.35;2.47;;;;;;;;;;5057222;28;20009;-79
2021/05/19 12:54:54;;;;;;;5.05;2.70;;;;;;;;;;5054485;28;20063;-78
2021/05/19 12:57:25;;;;;;;4.70;2.80;;;;;;;;;;5047193;28;20435;-78
2021/05/19 12:59:51;;;;;;;4.22;2.80;;;;;;;;;;5049833;28;20544;-78
2021/05/19 13:02:16;;;;;;;3.95;2.40;;;;;;;;;;5049283;28;20021;-78
2021/05/19 13:04:46;;;;;;;5.35;2.85;;;;;;;;;;5052228;28;20032;-78
2021/05/19 13:07:16;;;;;;;4.05;2.80;;;;;;;;;;5052303;28;20017;-79
2021/05/19 13:09:42;;;;;;;6.00;3.10;;;;;;;;;;5037813;28;20025;-78
2021/05/19 13:12:19;;;;;;;8.60;3.35;;;;;;;;;;5055186;28;20020;-78
2021/05/19 13:14:48;;;;;;;5.40;2.78;;;;;;;;;;5053331;28;20049;-78
2021/05/19 13:18:16;;;;;;;3.88;2.63;;;;;;;;;;5051139;28;20024;-78
2021/05/19 13:20:21;;;;;;;4.35;2.90;;;;;;;;;;5043613;28;20460;-79
2021/05/19 13:23:00;;;;;;;3.90;2.90;;;;;;;;;;5055436;28;20037;-78
2021/05/19 13:25:26;;;;;;;4.22;2.80;;;;;;;;;;5056479;28;20075;-78
2021/05/19 13:27:51;;;;;;;5.78;2.78;;;;;;;;;;5055239;28;20029;-79
2021/05/19 13:30:22;;;;;;;5.45;2.85;;;;;;;;;;5060531;28;20020;-78
2021/05/19 13:37:56;;;;;;;7.30;2.88;;;;;;;;;;5057236;28;20043;-78
2021/05/19 13:40:22;;;;;;;5.65;3.05;;;;;;;;;;5055960;28;20021;-78
2021/05/19 13:42:47;;;;;;;5.90;3.08;;;;;;;;;;5057052;28;20036;-78
2021/05/19 13:45:13;;;;;;;7.60;2.90;;;;;;;;;;5055109;28;20032;-78
2021/05/19 13:47:39;;;;;;;4.18;2.67;;;;;;;;;;5057287;28;20021;-78
2021/05/19 13:50:06;;;;;;;5.93;3.00;;;;;;;;;;5055171;28;20082;-77
2021/05/19 13:52:32;;;;;;;5.18;3.08;;;;;;;;;;5055708;28;20040;-78
2021/05/19 13:54:57;;;;;;;5.75;3.35;;;;;;;;;;5053713;28;20024;-78
2021/05/19 13:57:22;;;;;;;8.00;3.00;;;;;;;;;;5054169;28;20049;-79
2021/05/19 13:59:48;;;;;;;6.13;3.50;;;;;;;;;;5055168;28;20024;-78
2021/05/19 14:02:13;;;;;;;7.18;3.40;;;;;;;;;;5054964;28;20029;-78
2021/05/19 14:04:39;;;;;;;4.20;3.13;;;;;;;;;;5054880;28;20025;-78
2021/05/19 14:07:04;;;;;;;12.73;3.35;;;;;;;;;;5054832;28;20396;-78
2021/05/19 14:09:29;;;;;;;4.97;2.95;;;;;;;;;;5055002;28;20144;-78
2021/05/19 14:12:08;;;;;;;5.55;3.10;;;;;;;;;;5053916;28;20029;-78
2021/05/19 14:14:51;;;;;;;3.88;2.97;;;;;;;;;;5040650;28;20060;-78
2021/05/19 14:28:13;;;;;;;4.63;2.80;;;;;;;;;;5055305;28;20043;-78
2021/05/19 14:30:39;;;;;;;4.25;2.45;;;;;;;;;;5055487;28;20025;-78
2021/05/19 14:33:04;;;;;;;3.72;2.70;;;;;;;;;;5053592;28;20078;-80
2021/05/19 15:01:47;;;;;;;3.35;2.35;;;;;;;;;;5055020;28;20408;-78
2021/05/19 15:04:12;;;;;;;6.35;2.50;;;;;;;;;;5055370;28;20041;-78
2021/05/19 15:06:37;;;;;;;5.57;3.00;;;;;;;;;;5053711;28;20005;-78
2021/05/19 15:09:04;;;;;;;6.07;2.70;;;;;;;;;;5053434;28;20108;-78
2021/05/19 15:11:30;;;;;;;3.97;2.22;;;;;;;;;;5053600;28;20147;-78
2021/05/19 15:13:55;;;;;;;5.60;2.67;;;;;;;;;;5055363;28;20099;-78
2021/05/19 15:16:23;;;;;;;4.50;2.83;;;;;;;;;;5054073;28;20033;-79
2021/05/19 15:18:48;;;;;;;4.70;2.55;;;;;;;;;;5055152;28;20466;-79
2021/05/19 15:21:14;;;;;;;7.93;2.80;;;;;;;;;;5053654;28;20036;-79
2021/05/19 15:23:39;;;;;;;6.55;2.78;;;;;;;;;;5055660;28;20009;-78
2021/05/19 15:26:04;;;;;;;5.28;2.50;;;;;;;;;;5053850;28;20040;-80
2021/05/19 15:28:29;;;;;;;7.82;2.75;;;;;;;;;;5055560;28;20017;-79
2021/05/19 15:30:56;;;;;;;3.80;2.75;;;;;;;;;;5055816;28;20032;-79